﻿<?xml version="1.0" encoding="utf-8"?><gpx creator="Garmin Desktop App" version="1.1" xsi:schemaLocation="http://www.topografix.com/GPX/1/1 http://www.topografix.com/GPX/1/1/gpx.xsd http://www.garmin.com/xmlschemas/WaypointExtension/v1 http://www8.garmin.com/xmlschemas/WaypointExtensionv1.xsd http://www.garmin.com/xmlschemas/TrackPointExtension/v1 http://www.garmin.com/xmlschemas/TrackPointExtensionv1.xsd http://www.garmin.com/xmlschemas/GpxExtensions/v3 http://www8.garmin.com/xmlschemas/GpxExtensionsv3.xsd http://www.garmin.com/xmlschemas/ActivityExtension/v1 http://www8.garmin.com/xmlschemas/ActivityExtensionv1.xsd http://www.garmin.com/xmlschemas/AdventuresExtensions/v1 http://www8.garmin.com/xmlschemas/AdventuresExtensionv1.xsd http://www.garmin.com/xmlschemas/PressureExtension/v1 http://www.garmin.com/xmlschemas/PressureExtensionv1.xsd http://www.garmin.com/xmlschemas/TripExtensions/v1 http://www.garmin.com/xmlschemas/TripExtensionsv1.xsd http://www.garmin.com/xmlschemas/TripMetaDataExtensions/v1 http://www.garmin.com/xmlschemas/TripMetaDataExtensionsv1.xsd http://www.garmin.com/xmlschemas/ViaPointTransportationModeExtensions/v1 http://www.garmin.com/xmlschemas/ViaPointTransportationModeExtensionsv1.xsd http://www.garmin.com/xmlschemas/CreationTimeExtension/v1 http://www.garmin.com/xmlschemas/CreationTimeExtensionsv1.xsd http://www.garmin.com/xmlschemas/AccelerationExtension/v1 http://www.garmin.com/xmlschemas/AccelerationExtensionv1.xsd http://www.garmin.com/xmlschemas/PowerExtension/v1 http://www.garmin.com/xmlschemas/PowerExtensionv1.xsd http://www.garmin.com/xmlschemas/VideoExtension/v1 http://www.garmin.com/xmlschemas/VideoExtensionv1.xsd" xmlns="http://www.topografix.com/GPX/1/1" xmlns:xsi="http://www.w3.org/2001/XMLSchema-instance" xmlns:wptx1="http://www.garmin.com/xmlschemas/WaypointExtension/v1" xmlns:gpxtrx="http://www.garmin.com/xmlschemas/GpxExtensions/v3" xmlns:gpxtpx="http://www.garmin.com/xmlschemas/TrackPointExtension/v1" xmlns:gpxx="http://www.garmin.com/xmlschemas/GpxExtensions/v3" xmlns:trp="http://www.garmin.com/xmlschemas/TripExtensions/v1" xmlns:adv="http://www.garmin.com/xmlschemas/AdventuresExtensions/v1" xmlns:prs="http://www.garmin.com/xmlschemas/PressureExtension/v1" xmlns:tmd="http://www.garmin.com/xmlschemas/TripMetaDataExtensions/v1" xmlns:vptm="http://www.garmin.com/xmlschemas/ViaPointTransportationModeExtensions/v1" xmlns:ctx="http://www.garmin.com/xmlschemas/CreationTimeExtension/v1" xmlns:gpxacc="http://www.garmin.com/xmlschemas/AccelerationExtension/v1" xmlns:gpxpx="http://www.garmin.com/xmlschemas/PowerExtension/v1" xmlns:vidx1="http://www.garmin.com/xmlschemas/VideoExtension/v1">

  <metadata>
    <link href="http://www.garmin.com">
      <text>Garmin International</text>
    </link>
    <time>2021-02-28T19:46:39Z</time>
    <bounds maxlat="47.746532075107098" maxlon="12.601632932201028" minlat="47.739955298602581" minlon="12.558592697605491" />
  </metadata>

  <trk>
    <name>Gröhrkopf-Haaralmschneid</name>
    <extensions>
      <gpxx:TrackExtension>
        <gpxx:DisplayColor>Yellow</gpxx:DisplayColor>
      </gpxx:TrackExtension>
      <gpxtrkx:TrackStatsExtension xmlns:gpxtrkx="http://www.garmin.com/xmlschemas/TrackStatsExtension/v1">
        <gpxtrkx:Distance>5164</gpxtrkx:Distance>
        <gpxtrkx:TimerTime>9577</gpxtrkx:TimerTime>
        <gpxtrkx:TotalElapsedTime>4052120</gpxtrkx:TotalElapsedTime>
        <gpxtrkx:MovingTime>6851</gpxtrkx:MovingTime>
        <gpxtrkx:StoppedTime>2727</gpxtrkx:StoppedTime>
        <gpxtrkx:MovingSpeed>0.754</gpxtrkx:MovingSpeed>
        <gpxtrkx:MaxSpeed>2.099</gpxtrkx:MaxSpeed>
        <gpxtrkx:MaxElevation>1591.144</gpxtrkx:MaxElevation>
        <gpxtrkx:MinElevation>360.734</gpxtrkx:MinElevation>
        <gpxtrkx:Ascent>1037</gpxtrkx:Ascent>
        <gpxtrkx:Descent>66.563</gpxtrkx:Descent>
        <gpxtrkx:AvgAscentRate>0.136</gpxtrkx:AvgAscentRate>
        <gpxtrkx:MaxAscentRate>3.661</gpxtrkx:MaxAscentRate>
        <gpxtrkx:AvgDescentRate>0.034</gpxtrkx:AvgDescentRate>
        <gpxtrkx:MaxDescentRate>-0.301</gpxtrkx:MaxDescentRate>
        <gpxtrkx:Calories>534</gpxtrkx:Calories>
      </gpxtrkx:TrackStatsExtension>
    </extensions>
    <trkseg>
      <trkpt lat="47.740574469789863" lon="12.601570235565305">
        <ele>757.08000000000004</ele>
        <time>2021-02-28T08:28:28Z</time>
      </trkpt>
      <trkpt lat="47.740548066794872" lon="12.601632932201028">
        <ele>752.60000000000002</ele>
        <time>2021-02-28T08:30:36Z</time>
      </trkpt>
      <trkpt lat="47.740556867793202" lon="12.601598398759961">
        <ele>752.10000000000002</ele>
        <time>2021-02-28T08:33:07Z</time>
      </trkpt>
      <trkpt lat="47.740571033209562" lon="12.601526817306876">
        <ele>753.02999999999997</ele>
        <time>2021-02-28T08:34:48Z</time>
      </trkpt>
      <trkpt lat="47.740402221679688" lon="12.601159606128931">
        <ele>755.91999999999996</ele>
        <time>2021-02-28T08:35:11Z</time>
      </trkpt>
      <trkpt lat="47.740329382941127" lon="12.600751575082541">
        <ele>760.29999999999995</ele>
        <time>2021-02-28T08:35:34Z</time>
      </trkpt>
      <trkpt lat="47.74028118699789" lon="12.600340191274881">
        <ele>764.07000000000005</ele>
        <time>2021-02-28T08:35:58Z</time>
      </trkpt>
      <trkpt lat="47.740198122337461" lon="12.599953869357705">
        <ele>767.89999999999998</ele>
        <time>2021-02-28T08:36:21Z</time>
      </trkpt>
      <trkpt lat="47.740195943042636" lon="12.599532175809145">
        <ele>771.69000000000005</ele>
        <time>2021-02-28T08:36:43Z</time>
      </trkpt>
      <trkpt lat="47.740137437358499" lon="12.599150044843554">
        <ele>776.38</ele>
        <time>2021-02-28T08:37:07Z</time>
      </trkpt>
      <trkpt lat="47.740046326071024" lon="12.598775373771787">
        <ele>781.89999999999998</ele>
        <time>2021-02-28T08:37:33Z</time>
      </trkpt>
      <trkpt lat="47.739983797073364" lon="12.59836558252573">
        <ele>787.45000000000005</ele>
        <time>2021-02-28T08:38:00Z</time>
      </trkpt>
      <trkpt lat="47.739955298602581" lon="12.597950343042612">
        <ele>792.22000000000003</ele>
        <time>2021-02-28T08:38:26Z</time>
      </trkpt>
      <trkpt lat="47.73997575044632" lon="12.597535522654653">
        <ele>796.23000000000002</ele>
        <time>2021-02-28T08:38:51Z</time>
      </trkpt>
      <trkpt lat="47.740082452073693" lon="12.597166216000915">
        <ele>801.36000000000001</ele>
        <time>2021-02-28T08:39:17Z</time>
      </trkpt>
      <trkpt lat="47.740258891135454" lon="12.596877124160528">
        <ele>805.88999999999999</ele>
        <time>2021-02-28T08:39:44Z</time>
      </trkpt>
      <trkpt lat="47.740501463413239" lon="12.596624409779906">
        <ele>810.45000000000005</ele>
        <time>2021-02-28T08:40:18Z</time>
      </trkpt>
      <trkpt lat="47.740792483091354" lon="12.596480492502451">
        <ele>816.23000000000002</ele>
        <time>2021-02-28T08:40:50Z</time>
      </trkpt>
      <trkpt lat="47.741055507212877" lon="12.596287624910474">
        <ele>822.63</ele>
        <time>2021-02-28T08:41:41Z</time>
      </trkpt>
      <trkpt lat="47.741269329562783" lon="12.595972381532192">
        <ele>828.72000000000003</ele>
        <time>2021-02-28T08:42:12Z</time>
      </trkpt>
      <trkpt lat="47.741425149142742" lon="12.595624281093478">
        <ele>834.24000000000001</ele>
        <time>2021-02-28T08:42:41Z</time>
      </trkpt>
      <trkpt lat="47.741439398378134" lon="12.595257489010692">
        <ele>836.72000000000003</ele>
        <time>2021-02-28T08:43:02Z</time>
      </trkpt>
      <trkpt lat="47.741321129724383" lon="12.594833364710212">
        <ele>841.14999999999998</ele>
        <time>2021-02-28T08:43:30Z</time>
      </trkpt>
      <trkpt lat="47.74122322909534" lon="12.594370180740952">
        <ele>847.63999999999999</ele>
        <time>2021-02-28T08:43:58Z</time>
      </trkpt>
      <trkpt lat="47.741242675110698" lon="12.593860141932964">
        <ele>853.76999999999998</ele>
        <time>2021-02-28T08:44:29Z</time>
      </trkpt>
      <trkpt lat="47.741351975128055" lon="12.593394359573722">
        <ele>859.34000000000003</ele>
        <time>2021-02-28T08:44:56Z</time>
      </trkpt>
      <trkpt lat="47.741466974839568" lon="12.592969313263893">
        <ele>864.49000000000001</ele>
        <time>2021-02-28T08:45:22Z</time>
      </trkpt>
      <trkpt lat="47.741427244618535" lon="12.592520043253899">
        <ele>870.03999999999996</ele>
        <time>2021-02-28T08:45:48Z</time>
      </trkpt>
      <trkpt lat="47.741348957642913" lon="12.592043867334723">
        <ele>877.11000000000001</ele>
        <time>2021-02-28T08:46:22Z</time>
      </trkpt>
      <trkpt lat="47.741194814443588" lon="12.591852005571127">
        <ele>880.17999999999995</ele>
        <time>2021-02-28T08:47:16Z</time>
      </trkpt>
      <trkpt lat="47.741235299035907" lon="12.591370716691017">
        <ele>887.33000000000004</ele>
        <time>2021-02-28T08:47:52Z</time>
      </trkpt>
      <trkpt lat="47.741127423942089" lon="12.591120013967156">
        <ele>889.49000000000001</ele>
        <time>2021-02-28T08:48:34Z</time>
      </trkpt>
      <trkpt lat="47.741169333457947" lon="12.590784067288041">
        <ele>895.95000000000005</ele>
        <time>2021-02-28T08:49:01Z</time>
      </trkpt>
      <trkpt lat="47.741201519966125" lon="12.590370001271367">
        <ele>902.76999999999998</ele>
        <time>2021-02-28T08:49:30Z</time>
      </trkpt>
      <trkpt lat="47.741267066448927" lon="12.589975548908114">
        <ele>908.38999999999999</ele>
        <time>2021-02-28T08:49:55Z</time>
      </trkpt>
      <trkpt lat="47.741284165531397" lon="12.589586796239018">
        <ele>913.95000000000005</ele>
        <time>2021-02-28T08:50:20Z</time>
      </trkpt>
      <trkpt lat="47.741252984851599" lon="12.589218663051724">
        <ele>919.25999999999999</ele>
        <time>2021-02-28T08:50:45Z</time>
      </trkpt>
      <trkpt lat="47.741261450573802" lon="12.588830580934882">
        <ele>924.71000000000004</ele>
        <time>2021-02-28T08:51:11Z</time>
      </trkpt>
      <trkpt lat="47.741285758092999" lon="12.58842539973557">
        <ele>929.92999999999995</ele>
        <time>2021-02-28T08:51:36Z</time>
      </trkpt>
      <trkpt lat="47.741326745599508" lon="12.588028768077493">
        <ele>934.55999999999995</ele>
        <time>2021-02-28T08:52:00Z</time>
      </trkpt>
      <trkpt lat="47.741459766402841" lon="12.587640769779682">
        <ele>940.76999999999998</ele>
        <time>2021-02-28T08:52:28Z</time>
      </trkpt>
      <trkpt lat="47.741558086127043" lon="12.587263500317931">
        <ele>945.84000000000003</ele>
        <time>2021-02-28T08:52:53Z</time>
      </trkpt>
      <trkpt lat="47.741588847711682" lon="12.586871143430471">
        <ele>950.65999999999997</ele>
        <time>2021-02-28T08:53:19Z</time>
      </trkpt>
      <trkpt lat="47.741696890443563" lon="12.586460765451193">
        <ele>956.75</ele>
        <time>2021-02-28T08:53:49Z</time>
      </trkpt>
      <trkpt lat="47.741795880720019" lon="12.586031863465905">
        <ele>960.99000000000001</ele>
        <time>2021-02-28T08:54:15Z</time>
      </trkpt>
      <trkpt lat="47.741847932338715" lon="12.585591981187463">
        <ele>965.21000000000004</ele>
        <time>2021-02-28T08:54:39Z</time>
      </trkpt>
      <trkpt lat="47.742092432454228" lon="12.585313115268946">
        <ele>971.26999999999998</ele>
        <time>2021-02-28T08:55:14Z</time>
      </trkpt>
      <trkpt lat="47.742270799353719" lon="12.584894858300686">
        <ele>976.47000000000003</ele>
        <time>2021-02-28T08:55:43Z</time>
      </trkpt>
      <trkpt lat="47.742249593138695" lon="12.584366211667657">
        <ele>982.49000000000001</ele>
        <time>2021-02-28T08:56:15Z</time>
      </trkpt>
      <trkpt lat="47.742310194298625" lon="12.583803366869688">
        <ele>988.37</ele>
        <time>2021-02-28T08:56:46Z</time>
      </trkpt>
      <trkpt lat="47.742365598678589" lon="12.583335656672716">
        <ele>994.16999999999996</ele>
        <time>2021-02-28T08:57:20Z</time>
      </trkpt>
      <trkpt lat="47.742238445207477" lon="12.582801729440689">
        <ele>999.42999999999995</ele>
        <time>2021-02-28T08:57:49Z</time>
      </trkpt>
      <trkpt lat="47.74234414100647" lon="12.582394704222679">
        <ele>1004.88</ele>
        <time>2021-02-28T08:58:19Z</time>
      </trkpt>
      <trkpt lat="47.742428714409471" lon="12.581989020109177">
        <ele>1011.67</ele>
        <time>2021-02-28T08:58:54Z</time>
      </trkpt>
      <trkpt lat="47.742283623665571" lon="12.581779137253761">
        <ele>1015.4400000000001</ele>
        <time>2021-02-28T08:59:54Z</time>
      </trkpt>
      <trkpt lat="47.742366520687938" lon="12.581781568005681">
        <ele>1015.72</ele>
        <time>2021-02-28T09:01:46Z</time>
      </trkpt>
      <trkpt lat="47.74244723841548" lon="12.581875193864107">
        <ele>1016.17</ele>
        <time>2021-02-28T09:03:05Z</time>
      </trkpt>
      <trkpt lat="47.742362078279257" lon="12.581847868859768">
        <ele>1017.04</ele>
        <time>2021-02-28T09:04:25Z</time>
      </trkpt>
      <trkpt lat="47.742446400225163" lon="12.581419637426734">
        <ele>1020.46</ele>
        <time>2021-02-28T09:05:43Z</time>
      </trkpt>
      <trkpt lat="47.742374148219824" lon="12.580943796783686">
        <ele>1026.1199999999999</ele>
        <time>2021-02-28T09:06:21Z</time>
      </trkpt>
      <trkpt lat="47.742486884817481" lon="12.580564599484205">
        <ele>1031.3900000000001</ele>
        <time>2021-02-28T09:06:57Z</time>
      </trkpt>
      <trkpt lat="47.742572464048862" lon="12.58012605831027">
        <ele>1037.7</ele>
        <time>2021-02-28T09:07:36Z</time>
      </trkpt>
      <trkpt lat="47.742507923394442" lon="12.579688690602779">
        <ele>1042.54</ele>
        <time>2021-02-28T09:08:12Z</time>
      </trkpt>
      <trkpt lat="47.742499122396111" lon="12.579269092530012">
        <ele>1047.03</ele>
        <time>2021-02-28T09:08:46Z</time>
      </trkpt>
      <trkpt lat="47.742556119337678" lon="12.578863240778446">
        <ele>1052.3199999999999</ele>
        <time>2021-02-28T09:09:21Z</time>
      </trkpt>
      <trkpt lat="47.742620324715972" lon="12.578373486176133">
        <ele>1056.75</ele>
        <time>2021-02-28T09:09:58Z</time>
      </trkpt>
      <trkpt lat="47.742741359397769" lon="12.577998982742429">
        <ele>1061.6099999999999</ele>
        <time>2021-02-28T09:10:34Z</time>
      </trkpt>
      <trkpt lat="47.742872703820467" lon="12.578351525589824">
        <ele>1067.3299999999999</ele>
        <time>2021-02-28T09:11:13Z</time>
      </trkpt>
      <trkpt lat="47.743001785129309" lon="12.578036868944764">
        <ele>1074.49</ele>
        <time>2021-02-28T09:11:53Z</time>
      </trkpt>
      <trkpt lat="47.743060039356351" lon="12.577620791271329">
        <ele>1079.4000000000001</ele>
        <time>2021-02-28T09:12:30Z</time>
      </trkpt>
      <trkpt lat="47.74311376735568" lon="12.577133048325777">
        <ele>1086.76</ele>
        <time>2021-02-28T09:13:06Z</time>
      </trkpt>
      <trkpt lat="47.743217367678881" lon="12.576697189360857">
        <ele>1094.6400000000001</ele>
        <time>2021-02-28T09:13:38Z</time>
      </trkpt>
      <trkpt lat="47.743378132581711" lon="12.576271137222648">
        <ele>1101.04</ele>
        <time>2021-02-28T09:14:14Z</time>
      </trkpt>
      <trkpt lat="47.743502436205745" lon="12.575874337926507">
        <ele>1103.54</ele>
        <time>2021-02-28T09:15:08Z</time>
      </trkpt>
      <trkpt lat="47.743498077616096" lon="12.575485752895474">
        <ele>1105.76</ele>
        <time>2021-02-28T09:16:00Z</time>
      </trkpt>
      <trkpt lat="47.743515511974692" lon="12.575071016326547">
        <ele>1109.0699999999999</ele>
        <time>2021-02-28T09:16:31Z</time>
      </trkpt>
      <trkpt lat="47.743489611893892" lon="12.574658207595348">
        <ele>1114</ele>
        <time>2021-02-28T09:17:05Z</time>
      </trkpt>
      <trkpt lat="47.74341082200408" lon="12.574274316430092">
        <ele>1118.6099999999999</ele>
        <time>2021-02-28T09:17:53Z</time>
      </trkpt>
      <trkpt lat="47.743392465636134" lon="12.57388724014163">
        <ele>1124.55</ele>
        <time>2021-02-28T09:18:31Z</time>
      </trkpt>
      <trkpt lat="47.74343429133296" lon="12.57350318133831">
        <ele>1131.0599999999999</ele>
        <time>2021-02-28T09:19:17Z</time>
      </trkpt>
      <trkpt lat="47.743477541953325" lon="12.573121720924973">
        <ele>1137.3499999999999</ele>
        <time>2021-02-28T09:19:59Z</time>
      </trkpt>
      <trkpt lat="47.743612239137292" lon="12.572758616879582">
        <ele>1147.23</ele>
        <time>2021-02-28T09:20:50Z</time>
      </trkpt>
      <trkpt lat="47.743700752034783" lon="12.572346981614828">
        <ele>1156.8299999999999</ele>
        <time>2021-02-28T09:21:42Z</time>
      </trkpt>
      <trkpt lat="47.743736291304231" lon="12.571921348571777">
        <ele>1168.1199999999999</ele>
        <time>2021-02-28T09:22:41Z</time>
      </trkpt>
      <trkpt lat="47.743781805038452" lon="12.571573499590158">
        <ele>1180.3199999999999</ele>
        <time>2021-02-28T09:23:38Z</time>
      </trkpt>
      <trkpt lat="47.74386084638536" lon="12.571348696947098">
        <ele>1190.95</ele>
        <time>2021-02-28T09:24:38Z</time>
      </trkpt>
      <trkpt lat="47.744062431156635" lon="12.571315756067634">
        <ele>1199.8199999999999</ele>
        <time>2021-02-28T09:25:42Z</time>
      </trkpt>
      <trkpt lat="47.74409101344645" lon="12.571011492982507">
        <ele>1213.4200000000001</ele>
        <time>2021-02-28T09:26:57Z</time>
      </trkpt>
      <trkpt lat="47.744185645133257" lon="12.570650400593877">
        <ele>1223.75</ele>
        <time>2021-02-28T09:27:57Z</time>
      </trkpt>
      <trkpt lat="47.74416720494628" lon="12.570327948778868">
        <ele>1226.1700000000001</ele>
        <time>2021-02-28T09:29:03Z</time>
      </trkpt>
      <trkpt lat="47.744418159127235" lon="12.57007691077888">
        <ele>1232.95</ele>
        <time>2021-02-28T09:30:06Z</time>
      </trkpt>
      <trkpt lat="47.74459476582706" lon="12.569849090650678">
        <ele>1242.54</ele>
        <time>2021-02-28T09:30:57Z</time>
      </trkpt>
      <trkpt lat="47.744724936783314" lon="12.569541223347187">
        <ele>1251.49</ele>
        <time>2021-02-28T09:31:43Z</time>
      </trkpt>
      <trkpt lat="47.744604488834739" lon="12.569157164543867">
        <ele>1253.27</ele>
        <time>2021-02-28T09:32:34Z</time>
      </trkpt>
      <trkpt lat="47.744614295661449" lon="12.56871703080833">
        <ele>1260.5699999999999</ele>
        <time>2021-02-28T09:33:31Z</time>
      </trkpt>
      <trkpt lat="47.744699874892831" lon="12.568299612030387">
        <ele>1267.78</ele>
        <time>2021-02-28T09:34:21Z</time>
      </trkpt>
      <trkpt lat="47.744738347828388" lon="12.56800071336329">
        <ele>1279.9200000000001</ele>
        <time>2021-02-28T09:35:21Z</time>
      </trkpt>
      <trkpt lat="47.74471839889884" lon="12.567698042839766">
        <ele>1285.8499999999999</ele>
        <time>2021-02-28T09:36:10Z</time>
      </trkpt>
      <trkpt lat="47.744659306481481" lon="12.567282635718584">
        <ele>1291.73</ele>
        <time>2021-02-28T09:37:00Z</time>
      </trkpt>
      <trkpt lat="47.744702473282814" lon="12.566980384290218">
        <ele>1299.3</ele>
        <time>2021-02-28T09:37:57Z</time>
      </trkpt>
      <trkpt lat="47.74481562897563" lon="12.566706798970699">
        <ele>1306.95</ele>
        <time>2021-02-28T09:39:52Z</time>
      </trkpt>
      <trkpt lat="47.744914283975959" lon="12.566370600834489">
        <ele>1316.8699999999999</ele>
        <time>2021-02-28T09:40:46Z</time>
      </trkpt>
      <trkpt lat="47.745064487680793" lon="12.56604622118175">
        <ele>1331.3</ele>
        <time>2021-02-28T09:42:00Z</time>
      </trkpt>
      <trkpt lat="47.74521485902369" lon="12.565774479880929">
        <ele>1342.8499999999999</ele>
        <time>2021-02-28T09:43:08Z</time>
      </trkpt>
      <trkpt lat="47.745438572019339" lon="12.565632574260235">
        <ele>1353.8900000000001</ele>
        <time>2021-02-28T09:44:20Z</time>
      </trkpt>
      <trkpt lat="47.745718779042363" lon="12.565647661685944">
        <ele>1365.3900000000001</ele>
        <time>2021-02-28T09:45:29Z</time>
      </trkpt>
      <trkpt lat="47.745933188125491" lon="12.565689906477928">
        <ele>1377.3499999999999</ele>
        <time>2021-02-28T09:46:27Z</time>
      </trkpt>
      <trkpt lat="47.746210545301437" lon="12.565489746630192">
        <ele>1387.3499999999999</ele>
        <time>2021-02-28T09:47:31Z</time>
      </trkpt>
      <trkpt lat="47.746296711266041" lon="12.565206941217184">
        <ele>1394.4000000000001</ele>
        <time>2021-02-28T09:48:36Z</time>
      </trkpt>
      <trkpt lat="47.746282629668713" lon="12.56478063762188">
        <ele>1404.5799999999999</ele>
        <time>2021-02-28T09:49:35Z</time>
      </trkpt>
      <trkpt lat="47.746348427608609" lon="12.564294654875994">
        <ele>1414.0599999999999</ele>
        <time>2021-02-28T09:50:26Z</time>
      </trkpt>
      <trkpt lat="47.746388074010611" lon="12.564228856936097">
        <ele>1415.8</ele>
        <time>2021-02-28T09:52:07Z</time>
      </trkpt>
      <trkpt lat="47.746414477005601" lon="12.564044203609228">
        <ele>1420.9100000000001</ele>
        <time>2021-02-28T09:53:42Z</time>
      </trkpt>
      <trkpt lat="47.746433839201927" lon="12.563603231683373">
        <ele>1436.6199999999999</ele>
        <time>2021-02-28T09:54:51Z</time>
      </trkpt>
      <trkpt lat="47.746532075107098" lon="12.563326377421618">
        <ele>1453.02</ele>
        <time>2021-02-28T09:56:14Z</time>
      </trkpt>
      <trkpt lat="47.746398719027638" lon="12.563078356906772">
        <ele>1460.9300000000001</ele>
        <time>2021-02-28T09:57:13Z</time>
      </trkpt>
      <trkpt lat="47.746356222778559" lon="12.562703099101782">
        <ele>1466.5699999999999</ele>
        <time>2021-02-28T09:58:19Z</time>
      </trkpt>
      <trkpt lat="47.746409196406603" lon="12.562320046126842">
        <ele>1476.9100000000001</ele>
        <time>2021-02-28T10:00:30Z</time>
      </trkpt>
      <trkpt lat="47.746438281610608" lon="12.561967335641384">
        <ele>1488.6400000000001</ele>
        <time>2021-02-28T10:01:33Z</time>
      </trkpt>
      <trkpt lat="47.746320180594921" lon="12.561637591570616">
        <ele>1498.23</ele>
        <time>2021-02-28T10:02:35Z</time>
      </trkpt>
      <trkpt lat="47.746180035173893" lon="12.561399042606354">
        <ele>1513.6700000000001</ele>
        <time>2021-02-28T10:03:47Z</time>
      </trkpt>
      <trkpt lat="47.746145250275731" lon="12.561028562486172">
        <ele>1529.7</ele>
        <time>2021-02-28T10:05:10Z</time>
      </trkpt>
      <trkpt lat="47.746101329103112" lon="12.560632266104221">
        <ele>1542.6300000000001</ele>
        <time>2021-02-28T10:06:10Z</time>
      </trkpt>
      <trkpt lat="47.746025724336505" lon="12.560249213129282">
        <ele>1553.79</ele>
        <time>2021-02-28T10:07:05Z</time>
      </trkpt>
      <trkpt lat="47.74594634771347" lon="12.560098255053163">
        <ele>1555.48</ele>
        <time>2021-02-28T10:13:00Z</time>
      </trkpt>
      <trkpt lat="47.745680054649711" lon="12.559908740222454">
        <ele>1548.96</ele>
        <time>2021-02-28T10:13:28Z</time>
      </trkpt>
      <trkpt lat="47.745440080761909" lon="12.559801787137985">
        <ele>1550.55</ele>
        <time>2021-02-28T10:15:11Z</time>
      </trkpt>
      <trkpt lat="47.7453369833529" lon="12.559605063870549">
        <ele>1549.27</ele>
        <time>2021-02-28T10:21:43Z</time>
      </trkpt>
      <trkpt lat="47.74513179436326" lon="12.559338100254536">
        <ele>1543.9400000000001</ele>
        <time>2021-02-28T10:22:10Z</time>
      </trkpt>
      <trkpt lat="47.744962899014354" lon="12.559026628732681">
        <ele>1540.46</ele>
        <time>2021-02-28T10:22:35Z</time>
      </trkpt>
      <trkpt lat="47.744729463011026" lon="12.558820266276598">
        <ele>1542.05</ele>
        <time>2021-02-28T10:23:17Z</time>
      </trkpt>
      <trkpt lat="47.74447456933558" lon="12.558669978752732">
        <ele>1548.45</ele>
        <time>2021-02-28T10:24:21Z</time>
      </trkpt>
      <trkpt lat="47.744280276820064" lon="12.558592697605491">
        <ele>1540.76</ele>
        <time>2021-02-28T10:25:19Z</time>
      </trkpt>
      <trkpt lat="47.74408464320004" lon="12.558838957920671">
        <ele>1537.3</ele>
        <time>2021-02-28T10:27:41Z</time>
      </trkpt>
      <trkpt lat="47.743796557188034" lon="12.558849770575762">
        <ele>1531.53</ele>
        <time>2021-02-28T10:28:29Z</time>
      </trkpt>
      <trkpt lat="47.743518278002739" lon="12.558789420872927">
        <ele>1519.6900000000001</ele>
        <time>2021-02-28T10:29:56Z</time>
      </trkpt>
      <trkpt lat="47.743355669081211" lon="12.55893325433135">
        <ele>1521</ele>
        <time>2021-02-28T10:32:09Z</time>
      </trkpt>
      <trkpt lat="47.743041766807437" lon="12.559193093329668">
        <ele>1529.7</ele>
        <time>2021-02-28T10:32:51Z</time>
      </trkpt>
      <trkpt lat="47.742764241993427" lon="12.559211114421487">
        <ele>1531.25</ele>
        <time>2021-02-28T10:34:34Z</time>
      </trkpt>
      <trkpt lat="47.742484034970403" lon="12.559229135513306">
        <ele>1538.54</ele>
        <time>2021-02-28T10:35:28Z</time>
      </trkpt>
      <trkpt lat="47.742230482399464" lon="12.559399539604783">
        <ele>1551.3599999999999</ele>
        <time>2021-02-28T10:37:06Z</time>
      </trkpt>
      <trkpt lat="47.741986569017172" lon="12.559497356414795">
        <ele>1564.5699999999999</ele>
        <time>2021-02-28T10:38:14Z</time>
      </trkpt>
      <trkpt lat="47.741927225142717" lon="12.55972383543849">
        <ele>1577.1600000000001</ele>
        <time>2021-02-28T10:39:19Z</time>
      </trkpt>
      <trkpt lat="47.741874838247895" lon="12.559969928115606">
        <ele>1586.77</ele>
        <time>2021-02-28T10:40:35Z</time>
      </trkpt>
      <trkpt lat="47.741918675601482" lon="12.56036588922143">
        <ele>1588.3399999999999</ele>
        <time>2021-02-28T10:41:19Z</time>
      </trkpt>
      <trkpt lat="47.741916999220848" lon="12.560585327446461">
        <ele>1586.3</ele>
        <time>2021-02-28T10:53:53Z</time>
      </trkpt>
      <trkpt lat="47.741854470223188" lon="12.560647940263152">
        <ele>1582.9100000000001</ele>
        <time>2021-02-28T11:04:28Z</time>
      </trkpt>
      <trkpt lat="47.741766627877951" lon="12.560788001865149">
        <ele>1558.0799999999999</ele>
        <time>2021-02-28T11:08:09Z</time>
      </trkpt>
    </trkseg>
  </trk>

</gpx>